• Join FlightAware (Why Join?)
  • Login
  • US Flag 
02:26AM EDT


 

Airport Tracker/Info


-or-


 

Live Flight TrackerFlight Track Log ✈ GJS3657 ✈ 12-Jun-2013 ✈ KALB - KORD

Flight Track Log - Related Links

Times and Time Zones

All times are in EDT time to prevent confusion due to time zone crossing. See the GJS3657 flight status page for this flight to view local times or setup timezone preferences in your user account.

Time Position Orientation Groundspeed Altitude Reporting Facility
EDT Latitude Longitude Course Direction KTS MPH feet Rate Location/Type
07:07AM 42.7503 -73.8283 289° West 143 165 1,200  Level Boston Center
07:08AM 42.7664 -73.8908 289° West 181 208 3,400 1,980 Climbing Boston Center
07:09AM 42.8050 -73.9514 311° West 236 272 5,500 1,980 Climbing Boston Center
07:10AM 42.8236 -73.9772 314° West 243 280 6,300 2,700 Climbing Boston Center
07:11AM 42.8664 -74.0433 311° West 242 278 9,400 3,060 Climbing Boston Center
07:12AM 42.9236 -74.1214 315° West 247 284 12,500 2,340 Climbing Boston Center
07:13AM 42.9728 -74.1825 318° Northwest 264 304 14,100 1,680 Climbing Boston Center
07:14AM 43.0211 -74.2889 302° West 289 333 15,900 1,740 Climbing Boston Center
07:15AM 43.0294 -74.4056 276° West 318 366 17,600 1,980 Climbing Boston Center
07:16AM 43.0417 -74.5481 277° West 344 396 19,900 1,980 Climbing Boston Center
07:17AM 43.0514 -74.6819 276° West 357 411 21,600 1,500 Climbing Boston Center
07:18AM 43.0633 -74.8189 277° West 362 417 22,900 1,200 Climbing Boston Center
07:19AM 43.0750 -74.9614 276° West 374 430 24,100 1,080 Climbing Boston Center
07:20AM 43.0844 -75.0956 276° West 385 443 25,100 1,260 Climbing Boston Center
07:21AM 43.0953 -75.2439 276° West 390 449 26,700 1,440 Climbing Boston Center
07:22AM 43.1042 -75.3950 275° West 390 449 28,000 1,200 Climbing Boston Center
07:23AM 43.1150 -75.5378 276° West 390 449 29,200 1,260 Climbing Boston Center
07:24AM 43.1253 -75.6861 275° West 390 449 30,600 1,200 Climbing Boston Center
07:26AM 43.1467 -75.9956 276° West 383 441 33,000 1,140 Climbing Cleveland Center
07:27AM 43.1564 -76.1400 275° West 383 441 34,200 1,020 Climbing Cleveland Center
07:28AM 43.1597 -76.2822 272° West 383 441 35,100 720 Climbing Cleveland Center
07:29AM 43.1608 -76.4275 271° West 383 441 35,700 420 Climbing Cleveland Center
07:30AM 43.1619 -76.5725 271° West 383 441 36,000 120 Climbing Cleveland Center
07:31AM 43.1619 -76.6950 270° West 388 447 36,000  Level Cleveland Center
07:32AM 43.1594 -76.8772 269° West 402 463 36,000  Level Cleveland Center
07:33AM 43.1581 -77.0311 269° West 407 468 36,000  Level Cleveland Center
07:34AM 43.1564 -77.1822 269° West 407 468 36,000  Level Cleveland Center
07:35AM 43.1567 -77.3331 270° West 407 468 36,000  Level Cleveland Center
07:36AM 43.1547 -77.4897 269° West 407 468 36,000  Level Cleveland Center
07:37AM 43.1544 -77.6406 270° West 407 468 36,000  Level Cleveland Center
07:38AM 43.1497 -77.7917 268° West 402 463 36,000  Level Cleveland Center
07:39AM 43.1492 -77.9425 270° West 402 463 36,000  Level Cleveland Center
07:40AM 43.1461 -78.0906 268° West 402 463 36,000  Level Cleveland Center
07:41AM 43.1450 -78.2414 269° West 402 463 36,000  Level Cleveland Center
07:42AM 43.1417 -78.3894 268° West 402 463 36,000  Level Cleveland Center
07:43AM 43.1383 -78.5406 268° West 402 463 36,000  Level Cleveland Center
07:44AM 43.1344 -78.6828 268° West 397 457 36,000  Level Cleveland Center
07:45AM 43.1325 -78.8308 269° West 392 451 36,000  Level Cleveland Center
07:46AM 43.1264 -78.9789 267° West 392 451 36,000  Level Cleveland Center
07:46AM 43.1167 -79.0000 238° Southwest 390 449 36,000 360 Level Toronto Center
07:47AM 43.1167 -79.1500 270° West 390 449 36,500 660 Climbing Toronto Center
07:49AM 43.1000 -79.4500 266° West 390 449 38,000 480 Climbing Toronto Center
07:50AM 43.1000 -79.5833 270° West 390 449 38,000  Level Toronto Center
07:51AM 43.0833 -79.7500 262° West 400 460 38,000  Level Toronto Center
07:52AM 43.0833 -79.8833 270° West 400 460 38,000  Level Toronto Center
07:53AM 43.0833 -80.0500 270° West 400 460 38,000 -240 Level Toronto Center
07:54AM 43.0667 -80.2000 261° West 400 460 37,600 -600 Descending Toronto Center
07:55AM 43.0667 -80.3333 270° West 390 449 36,800 -720 Descending Toronto Center
07:56AM 43.0667 -80.4833 270° West 380 437 36,200 -420 Descending Toronto Center
07:57AM 43.0500 -80.6333 261° West 380 437 36,000 -120 Descending Toronto Center
07:58AM 43.0500 -80.7667 270° West 380 437 36,000  Level Toronto Center
07:59AM 43.0333 -80.9167 261° West 380 437 36,000  Level Toronto Center
08:00AM 43.0167 -81.0500 260° West 370 426 36,000  Level Toronto Center
08:01AM 43.0167 -81.1833 270° West 370 426 36,000  Level Toronto Center
08:02AM 43.0167 -81.3500 270° West 380 437 36,000  Level Toronto Center
08:03AM 43.0167 -81.4833 270° West 380 437 36,000  Level Toronto Center
08:04AM 43.0167 -81.6333 270° West 380 437 36,000  Level Toronto Center
08:05AM 43.0167 -81.7833 270° West 380 437 36,000  Level Toronto Center
08:06AM 43.0000 -81.9167 260° West 380 437 36,000  Level Toronto Center
08:07AM 43.0000 -82.0667 270° West 380 437 36,000  Level Toronto Center
08:08AM 43.0000 -82.2167 270° West 380 437 36,000  Level Toronto Center
08:09AM 43.0000 -82.3667 270° West 390 449 36,000  Level Toronto Center
08:10AM 43.0000 -82.5000 270° West 390 449 36,000  Level Toronto Center
08:11AM 43.0022 -82.6500 271° West 385 443 36,000  Level Cleveland Center
08:12AM 42.9975 -82.7972 268° West 385 443 36,000  Level Cleveland Center
08:13AM 42.9944 -82.9447 268° West 385 443 36,000  Level Cleveland Center
08:14AM 42.9892 -83.0950 267° West 385 443 36,000  Level Cleveland Center
08:15AM 42.9861 -83.2397 268° West 385 443 36,000  Level Cleveland Center
08:16AM 42.9803 -83.3900 267° West 385 443 36,000  Level Cleveland Center
08:17AM 42.9747 -83.5317 267° West 385 443 36,000  Level Cleveland Center
08:18AM 42.9689 -83.6789 267° West 385 443 36,000  Level Cleveland Center
08:19AM 42.9608 -83.8175 266° West 380 437 36,000  Level Cleveland Center
08:20AM 42.9464 -83.9558 262° West 380 437 36,000 -300 Level Cleveland Center
08:21AM 42.9339 -84.0997 263° West 380 437 35,400 -780 Descending Cleveland Center
08:22AM 42.9219 -84.2089 262° West 367 422 34,500 -1,020 Descending Chicago Center
08:23AM 42.9072 -84.3439 262° West 360 414 33,500 -1,020 Descending Chicago Center
08:24AM 42.8953 -84.4847 263° West 371 427 32,500 -780 Descending Chicago Center
08:25AM 42.8794 -84.6272 261° West 377 434 32,000 -300 Descending Chicago Center
08:26AM 42.8617 -84.7992 262° West 382 440 32,000 -60 Level Chicago Center
08:27AM 42.8469 -84.9392 262° West 376 433 31,900 -540 Descending Chicago Center
08:28AM 42.8319 -85.0789 262° West 374 430 30,900 -1,080 Descending Chicago Center
08:29AM 42.8167 -85.2258 262° West 385 443 29,700 -1,260 Descending Chicago Center
08:30AM 42.8014 -85.3717 262° West 389 448 28,400 -1,380 Descending Chicago Center
08:31AM 42.7844 -85.5156 261° West 386 444 26,900 -1,500 Descending Chicago Center
08:32AM 42.7569 -85.6675 256° West 409 471 25,300 -1,500 Descending Chicago Center
08:33AM 42.7297 -85.8161 256° West 406 467 23,800 -1,500 Descending Chicago Center
08:35AM 42.6929 -86.0020 255° West  Level FlightAware Approximate
08:35AM 42.6722 -86.1333 255° West 389 448 20,700  Level Chicago Center
08:36AM 42.6469 -86.2689 256° West 372 428 20,000 -1,020 Descending Chicago Center
08:37AM 42.6208 -86.3997 255° West 361 415 18,600 -1,500 Descending Chicago Center
08:38AM 42.5964 -86.5311 256° West 357 411 16,900 -1,560 Descending Chicago Center
08:39AM 42.5736 -86.6561 256° West 345 397 15,400 -1,500 Descending Chicago Center
08:40AM 42.5486 -86.7767 254° West 334 384 13,900 -1,620 Descending Chicago Center
08:41AM 42.5083 -86.9217 249° West 341 392 12,100 -960 Descending Chicago Center
08:42AM 42.4767 -87.0403 250° West 337 388 12,000 -480 Descending Chicago Center
08:43AM 42.4442 -87.1478 248° West 311 358 11,200 -1,140 Descending Chicago Center
08:44AM 42.4194 -87.2400 250° West 266 306 9,700 -1,140 Descending Chicago Center
08:45AM 42.3903 -87.3292 246° West 258 297 8,900 -1,140 Descending Chicago Center
08:47AM 42.3553 -87.4244 244° Southwest 253 291 7,400 -1,020 Descending Chicago Center
08:48AM 42.3239 -87.5072 243° Southwest 248 285 6,900 -840 Descending Chicago Center
08:49AM 42.2792 -87.5825 231° Southwest 254 292 5,800 -960 Descending Chicago Center
08:50AM 42.2306 -87.6400 221° Southwest 232 267 5,000 -420 Descending Chicago Center
08:51AM 42.1808 -87.6931 218° Southwest 228 262 5,000 -600 Level Chicago Center
08:52AM 42.1206 -87.7592 219° Southwest 233 268 3,800 -1,080 Descending Chicago Center
08:53AM 42.0811 -87.8053 221° Southwest 189 217 2,800 -960 Descending Chicago Center
08:54AM 42.0442 -87.8469 220° Southwest 176 203 1,900 -840 Descending Chicago Center
08:55AM 42.0133 -87.8808 219° Southwest 161 185 1,100 -780 Descending Chicago Center
08:57AM 41.9817 -87.9067 217° Southwest  Level Estimated